Time;durP1;ratioP1;P1;durP2;ratioP2;P2;SDS_P1;SDS_P2;PMS_P1;PMS_P2;Temp;Humidity;BMP_temperature;BMP_pressure;BME280_temperature;BME280_humidity;BME280_pressure;Samples;Min_cycle;Max_cycle;Signal;HPM_P1;HPM_P2
2022/03/14 00:00:48;;;;;;;36.72;20.83;;;;;;;-5.15;76.85;94249.41;5029135;28;20391;-78
2022/03/14 00:03:15;;;;;;;33.05;17.77;;;;;;;-5.19;77.68;94251.28;5029189;28;20046;-78
2022/03/14 00:05:42;;;;;;;28.40;16.30;;;;;;;-5.43;78.13;94214.22;5028850;28;20076;-78
2022/03/14 00:08:09;;;;;;;24.35;13.85;;;;;;;-5.27;78.48;94249.19;5029116;28;20072;-78
2022/03/14 00:10:36;;;;;;;21.77;12.20;;;;;;;-5.30;78.26;94248.56;5029009;28;20068;-78
2022/03/14 00:13:04;;;;;;;28.20;17.30;;;;;;;-5.37;79.00;94248.13;5028968;28;20116;-78
2022/03/14 00:15:32;;;;;;;27.90;17.48;;;;;;;-5.50;78.95;94238.78;5028752;28;20821;-78
2022/03/14 00:18:01;;;;;;;36.95;21.13;;;;;;;-5.51;78.90;94252.22;5028566;28;20052;-78
2022/03/14 00:20:28;;;;;;;37.88;20.52;;;;;;;-5.54;78.72;94261.59;5028670;28;20049;-78
2022/03/14 00:22:58;;;;;;;21.10;11.95;;;;;;;-5.63;79.06;94256.22;5029553;28;20049;-78
2022/03/14 00:25:26;;;;;;;23.17;13.20;;;;;;;-5.71;79.68;94255.81;5032845;28;20095;-78
2022/03/14 00:27:54;;;;;;;27.80;16.10;;;;;;;-5.74;80.84;94250.97;5032579;28;20049;-78
2022/03/14 00:30:21;;;;;;;19.95;11.63;;;;;;;-5.75;80.02;94256.88;5032510;28;20136;-78
2022/03/14 00:32:48;;;;;;;25.77;14.55;;;;;;;-5.94;79.93;94227.88;5032341;28;20057;-78
2022/03/14 00:35:17;;;;;;;19.65;12.52;;;;;;;-5.98;80.24;94238.13;5032611;28;20103;-78
2022/03/14 00:37:44;;;;;;;22.05;13.27;;;;;;;-5.90;80.58;94261.03;5032541;28;20041;-78
2022/03/14 00:40:12;;;;;;;24.20;13.52;;;;;;;-5.97;81.38;94234.72;5032233;28;20049;-78
2022/03/14 00:42:39;;;;;;;28.10;15.90;;;;;;;-5.85;81.55;94254.06;5032166;28;20517;-77
2022/03/14 00:45:07;;;;;;;24.13;13.90;;;;;;;-5.77;80.78;94266.19;5032122;28;20049;-77
2022/03/14 00:47:34;;;;;;;23.95;14.23;;;;;;;-5.74;80.82;94268.50;5032021;28;20061;-77
2022/03/14 00:50:01;;;;;;;24.00;14.27;;;;;;;-5.90;81.00;94249.34;5031972;28;20056;-78
2022/03/14 00:52:29;;;;;;;24.70;13.95;;;;;;;-5.74;81.03;94276.00;5032331;28;20049;-78
2022/03/14 00:54:56;;;;;;;27.27;16.63;;;;;;;-5.72;81.33;94271.72;5032047;28;20498;-77
2022/03/14 00:57:23;;;;;;;25.40;14.40;;;;;;;-5.72;81.00;94261.72;5031953;28;20494;-77
2022/03/14 00:59:50;;;;;;;25.42;15.30;;;;;;;-5.73;80.47;94276.81;5031857;28;20046;-77
2022/03/14 01:02:16;;;;;;;79.60;36.03;;;;;;;-5.74;81.31;94272.72;5031861;28;20049;-77
2022/03/14 01:04:43;;;;;;;66.97;32.03;;;;;;;-5.80;80.96;94278.84;5032163;28;20057;-77
2022/03/14 01:07:10;;;;;;;48.90;24.50;;;;;;;-5.86;81.92;94271.66;5031698;28;20046;-77
2022/03/14 01:09:38;;;;;;;31.25;16.67;;;;;;;-5.94;82.08;94265.38;5031939;28;20111;-77
2022/03/14 01:12:06;;;;;;;29.83;15.75;;;;;;;-6.11;81.36;94263.81;5031971;28;20414;-77
2022/03/14 01:14:33;;;;;;;28.15;15.40;;;;;;;-5.94;81.72;94282.91;5031984;28;20486;-77
2022/03/14 01:17:00;;;;;;;27.40;16.17;;;;;;;-5.93;82.61;94283.72;5023480;28;20052;-78
2022/03/14 01:19:27;;;;;;;28.13;17.15;;;;;;;-5.97;81.39;94280.56;5031610;28;20494;-78
2022/03/14 01:21:53;;;;;;;24.00;14.82;;;;;;;-5.98;82.88;94288.97;5037444;28;20052;-77
2022/03/14 01:24:20;;;;;;;22.45;12.52;;;;;;;-5.99;81.82;94284.03;5050564;28;20048;-78
2022/03/14 01:26:48;;;;;;;20.33;12.73;;;;;;;-6.09;82.45;94273.75;5051345;28;20049;-78
2022/03/14 01:29:17;;;;;;;21.02;11.80;;;;;;;-6.12;82.05;94277.22;5051160;28;20425;-78
2022/03/14 01:31:44;;;;;;;22.38;11.88;;;;;;;-6.04;82.67;94289.31;5051300;28;20049;-78
2022/03/14 01:34:11;;;;;;;25.42;14.20;;;;;;;-6.04;81.76;94296.81;5051015;28;20784;-78
2022/03/14 01:36:38;;;;;;;89.07;40.88;;;;;;;-6.06;82.23;94289.41;5050939;28;20576;-80
2022/03/14 01:39:05;;;;;;;18.83;12.15;;;;;;;-6.14;81.08;94298.19;5051205;28;20053;-78
2022/03/14 01:41:32;;;;;;;21.13;10.40;;;;;;;-6.32;82.08;94286.59;5051104;28;20506;-78
2022/03/14 01:44:01;;;;;;;18.88;11.25;;;;;;;-6.45;82.70;94288.91;5050857;28;20052;-78
2022/03/14 01:46:28;;;;;;;40.10;20.35;;;;;;;-6.33;84.40;94297.47;5051095;28;20041;-78
2022/03/14 01:48:55;;;;;;;77.47;38.05;;;;;;;-6.47;83.94;94272.38;5050827;28;20056;-78
2022/03/14 01:51:23;;;;;;;62.03;31.73;;;;;;;-6.30;83.89;94309.00;5050582;28;20490;-78
2022/03/14 01:53:50;;;;;;;63.58;32.97;;;;;;;-6.54;84.75;94276.88;5051189;28;20092;-78
2022/03/14 01:56:18;;;;;;;88.88;43.90;;;;;;;-6.41;84.57;94302.06;5050826;28;20045;-78
2022/03/14 01:58:47;;;;;;;59.20;31.15;;;;;;;-6.39;85.04;94322.00;5051039;28;20080;-78
2022/03/14 02:01:15;;;;;;;54.13;30.30;;;;;;;-6.51;84.83;94298.41;5035412;28;20073;-78
2022/03/14 02:03:43;;;;;;;47.15;24.73;;;;;;;-6.54;85.83;94293.59;5030453;28;20153;-78
2022/03/14 02:06:10;;;;;;;38.30;22.75;;;;;;;-6.48;85.57;94316.56;5027459;28;20049;-78
2022/03/14 02:08:37;;;;;;;44.60;23.42;;;;;;;-6.53;87.04;94322.69;5030486;28;20127;-78
2022/03/14 02:11:04;;;;;;;45.63;22.60;;;;;;;-6.59;87.28;94313.81;5030365;28;20510;-79
2022/03/14 02:13:31;;;;;;;41.72;22.88;;;;;;;-6.73;87.01;94287.84;5027468;28;20569;-78
2022/03/14 02:15:58;;;;;;;48.28;26.10;;;;;;;-6.59;86.79;94331.28;5030238;28;20061;-78
2022/03/14 02:18:26;;;;;;;50.10;29.92;;;;;;;-6.74;89.24;94327.88;5030447;28;20434;-78
2022/03/14 02:20:54;;;;;;;55.50;30.98;;;;;;;-6.88;89.78;94319.41;5030276;28;20057;-78
2022/03/14 02:23:21;;;;;;;50.20;28.25;;;;;;;-6.79;90.45;94322.31;5030402;28;20041;-79
2022/03/14 02:25:49;;;;;;;78.07;40.88;;;;;;;-6.70;89.63;94334.34;5030615;28;20115;-78
2022/03/14 02:28:16;;;;;;;55.13;30.25;;;;;;;-6.76;88.45;94314.66;5029683;28;20046;-78
2022/03/14 02:30:43;;;;;;;61.08;34.88;;;;;;;-6.64;87.78;94331.53;5029663;28;20132;-78
2022/03/14 02:33:10;;;;;;;60.63;31.60;;;;;;;-6.62;87.96;94336.47;5026942;28;20045;-78
2022/03/14 02:35:39;;;;;;;45.28;25.85;;;;;;;-6.59;87.61;94341.28;5029625;28;20046;-78
2022/03/14 02:38:11;;;;;;;36.67;21.60;;;;;;;-6.63;86.70;94342.34;5029756;28;20091;-78
2022/03/14 02:40:39;;;;;;;27.75;17.05;;;;;;;-6.72;87.13;94333.59;5029669;28;20077;-78
2022/03/14 02:43:06;;;;;;;26.42;16.02;;;;;;;-6.68;86.05;94350.06;5029410;28;20107;-78
2022/03/14 02:45:33;;;;;;;18.65;10.93;;;;;;;-6.98;86.25;94328.22;5028742;28;20506;-78
2022/03/14 02:48:00;;;;;;;33.65;18.85;;;;;;;-6.94;86.63;94341.38;5029058;28;20061;-78
2022/03/14 02:50:29;;;;;;;25.92;14.80;;;;;;;-6.94;87.02;94352.19;5029280;28;20046;-78
2022/03/14 02:52:56;;;;;;;22.42;14.63;;;;;;;-7.25;87.38;94306.19;5029356;28;20060;-77
2022/03/14 02:55:25;;;;;;;29.17;15.95;;;;;;;-7.08;87.67;94339.53;5029082;28;20128;-77
2022/03/14 02:57:52;;;;;;;32.08;17.30;;;;;;;-7.37;87.84;94315.06;5027107;28;20046;-76
2022/03/14 03:00:19;;;;;;;29.67;16.23;;;;;;;-7.06;88.74;94357.75;5029115;28;20498;-77
2022/03/14 03:02:46;;;;;;;27.48;15.38;;;;;;;-7.02;88.57;94361.72;5029415;28;20107;-77
2022/03/14 03:05:13;;;;;;;34.63;19.55;;;;;;;-6.91;88.23;94362.00;5029106;28;20513;-76
2022/03/14 03:07:39;;;;;;;25.73;15.45;;;;;;;-6.86;87.81;94360.09;5028724;28;20041;-77
2022/03/14 03:10:07;;;;;;;35.38;22.73;;;;;;;-6.93;87.72;94342.97;5029190;28;20107;-77
2022/03/14 03:12:37;;;;;;;24.90;15.00;;;;;;;-6.91;86.84;94352.00;5029074;28;20069;-78
2022/03/14 03:15:05;;;;;;;20.90;14.02;;;;;;;-6.80;87.57;94370.66;5029193;28;20112;-78
2022/03/14 03:17:32;;;;;;;22.23;13.60;;;;;;;-7.07;86.58;94334.47;5026808;28;20041;-78
2022/03/14 03:19:59;;;;;;;20.60;11.50;;;;;;;-6.84;86.53;94375.78;5028687;28;20052;-78
2022/03/14 03:22:27;;;;;;;18.23;11.23;;;;;;;-6.92;86.53;94365.38;5028746;28;20499;-78
2022/03/14 03:24:54;;;;;;;22.90;11.95;;;;;;;-7.01;86.50;94350.84;5026873;28;20053;-78
2022/03/14 03:27:21;;;;;;;18.63;11.45;;;;;;;-6.88;86.66;94371.03;5028690;28;20041;-77
2022/03/14 03:29:50;;;;;;;16.17;9.88;;;;;;;-6.92;86.31;94382.06;5028780;28;20056;-77
2022/03/14 03:32:16;;;;;;;29.58;15.30;;;;;;;-6.99;86.19;94379.06;5028908;28;20121;-77
2022/03/14 03:34:43;;;;;;;15.70;9.02;;;;;;;-7.13;85.87;94395.50;5028416;28;20045;-77
2022/03/14 03:37:10;;;;;;;16.58;8.85;;;;;;;-7.29;87.27;94394.59;5026317;28;20080;-77
2022/03/14 03:39:37;;;;;;;18.02;9.75;;;;;;;-7.28;87.11;94392.03;5028633;28;20095;-77
2022/03/14 03:42:05;;;;;;;19.52;10.63;;;;;;;-7.31;87.67;94396.38;5029027;28;20049;-76
2022/03/14 03:44:32;;;;;;;16.83;10.65;;;;;;;-7.34;87.47;94402.31;5026080;28;20041;-77
2022/03/14 03:47:00;;;;;;;16.38;10.80;;;;;;;-7.36;87.64;94401.59;5028514;28;20049;-77
2022/03/14 03:49:27;;;;;;;22.20;12.18;;;;;;;-7.31;88.80;94403.88;5028526;28;20053;-78
2022/03/14 03:51:53;;;;;;;20.42;14.18;;;;;;;-7.28;88.35;94413.69;5028754;28;20068;-76
2022/03/14 03:54:21;;;;;;;21.80;12.38;;;;;;;-7.31;87.89;94411.34;5028579;28;20041;-77
2022/03/14 03:56:48;;;;;;;24.25;15.02;;;;;;;-7.30;87.79;94396.31;5028497;28;20042;-77
2022/03/14 03:59:15;;;;;;;23.27;13.85;;;;;;;-7.38;87.82;94384.19;5031659;28;20049;-78
2022/03/14 04:01:43;;;;;;;31.67;17.55;;;;;;;-7.15;88.05;94414.75;5032455;28;20080;-77
2022/03/14 04:04:11;;;;;;;49.92;25.67;;;;;;;-7.09;87.67;94418.63;5032370;28;20037;-77
2022/03/14 04:06:41;;;;;;;44.22;23.10;;;;;;;-7.06;87.65;94421.00;5032376;28;20048;-77
2022/03/14 04:09:10;;;;;;;47.90;24.95;;;;;;;-7.05;87.17;94427.59;5032390;28;20049;-77
2022/03/14 04:11:41;;;;;;;41.75;23.77;;;;;;;-7.09;87.52;94425.34;5032315;28;20582;-77
2022/03/14 04:14:09;;;;;;;44.85;26.65;;;;;;;-7.08;87.92;94427.75;5032513;28;20103;-77
2022/03/14 04:16:37;;;;;;;70.20;31.23;;;;;;;-7.14;87.84;94416.34;5033092;28;20078;-78
2022/03/14 04:19:03;;;;;;;98.68;41.22;;;;;;;-7.17;87.77;94418.19;5032669;28;20577;-77
2022/03/14 04:21:36;;;;;;;33.10;18.77;;;;;;;-7.27;87.48;94413.63;5029773;28;20037;-77
2022/03/14 04:24:06;;;;;;;26.90;15.10;;;;;;;-7.52;87.41;94404.78;5031940;28;20087;-77
2022/03/14 04:26:33;;;;;;;27.30;15.45;;;;;;;-7.28;87.38;94436.16;5032107;28;20081;-78
2022/03/14 04:29:00;;;;;;;22.48;13.70;;;;;;;-7.26;88.10;94430.22;5031861;28;20586;-77
2022/03/14 04:31:27;;;;;;;24.92;13.90;;;;;;;-7.63;87.93;94387.00;5032288;28;20045;-77
2022/03/14 04:33:54;;;;;;;28.92;16.83;;;;;;;-7.29;87.72;94442.84;5031801;28;20050;-78
2022/03/14 04:36:21;;;;;;;34.65;21.10;;;;;;;-7.40;87.43;94427.56;5031599;28;20042;-78
2022/03/14 04:38:49;;;;;;;28.23;17.20;;;;;;;-7.27;87.98;94445.28;5032315;28;20041;-78
2022/03/14 04:41:16;;;;;;;48.75;26.67;;;;;;;-7.29;88.12;94447.03;5031886;28;20495;-77
2022/03/14 04:43:43;;;;;;;46.72;26.10;;;;;;;-7.44;88.74;94438.56;5032011;28;20046;-77
2022/03/14 04:46:10;;;;;;;43.75;23.60;;;;;;;-7.39;88.67;94452.47;5032224;28;20414;-77
2022/03/14 04:48:37;;;;;;;35.88;21.85;;;;;;;-7.32;88.79;94455.47;5031919;28;20053;-77
2022/03/14 04:51:03;;;;;;;41.20;22.52;;;;;;;-7.41;88.59;94464.19;5031988;28;20053;-78
2022/03/14 04:53:30;;;;;;;63.03;37.05;;;;;;;-7.85;91.35;94424.56;5031830;28;20053;-78
2022/03/14 04:55:58;;;;;;;80.45;42.75;;;;;;;-7.75;92.45;94433.25;5031892;28;20438;-76
2022/03/14 04:58:25;;;;;;;69.57;37.38;;;;;;;-7.50;92.03;94469.63;5031850;28;20061;-76
2022/03/14 05:00:53;;;;;;;67.10;36.63;;;;;;;-7.47;91.55;94476.13;5032407;28;20049;-76
2022/03/14 05:03:20;;;;;;;54.67;30.95;;;;;;;-7.40;91.29;94484.97;5031676;28;20049;-76
2022/03/14 05:05:47;;;;;;;45.55;26.90;;;;;;;-7.36;91.41;94493.13;5032091;28;20046;-77
2022/03/14 05:08:14;;;;;;;55.78;34.35;;;;;;;-7.48;92.83;94474.50;5031508;28;20045;-77
2022/03/14 05:10:41;;;;;;;61.40;34.83;;;;;;;-7.31;92.45;94491.25;5031486;28;20053;-77
2022/03/14 05:13:10;;;;;;;54.63;33.25;;;;;;;-7.28;90.88;94493.59;5031497;28;20046;-77
2022/03/14 05:15:37;;;;;;;50.35;29.42;;;;;;;-7.35;92.00;94478.09;5031981;28;20046;-78
2022/03/14 05:18:04;;;;;;;50.95;30.33;;;;;;;-7.17;91.10;94495.59;5031563;28;20410;-78
2022/03/14 05:20:30;;;;;;;51.83;31.15;;;;;;;-7.36;90.94;94471.47;5031734;28;20053;-78
2022/03/14 05:22:57;;;;;;;62.20;35.58;;;;;;;-7.13;90.74;94499.59;5031437;28;20049;-78
2022/03/14 05:25:24;;;;;;;60.28;32.47;;;;;;;-7.30;90.73;94476.19;5031659;28;20084;-77
2022/03/14 05:27:53;;;;;;;52.17;27.20;;;;;;;-7.01;90.77;94503.19;5031733;28;20448;-77
2022/03/14 05:30:22;;;;;;;46.70;26.33;;;;;;;-7.12;90.35;94486.22;5031411;28;20057;-77
2022/03/14 05:32:49;;;;;;;42.05;22.90;;;;;;;-6.82;89.89;94517.34;5031520;28;20392;-77
2022/03/14 05:35:16;;;;;;;34.10;20.80;;;;;;;-6.74;90.67;94526.09;5031647;28;20135;-77
2022/03/14 05:37:43;;;;;;;32.22;18.58;;;;;;;-6.65;89.99;94524.88;5031513;28;20049;-77
2022/03/14 05:40:13;;;;;;;27.25;16.80;;;;;;;-6.59;90.18;94512.06;5031317;28;20053;-77
2022/03/14 05:42:39;;;;;;;31.35;17.33;;;;;;;-6.39;88.78;94529.50;5031030;28;20521;-77
2022/03/14 05:45:08;;;;;;;31.42;17.30;;;;;;;-6.33;88.43;94520.03;5031862;28;20103;-77
2022/03/14 05:47:37;;;;;;;24.88;15.15;;;;;;;-6.10;88.82;94533.09;5027893;28;20050;-78
2022/03/14 05:50:04;;;;;;;34.42;18.63;;;;;;;-5.94;87.95;94525.59;5029660;28;20053;-77
2022/03/14 05:52:30;;;;;;;30.08;20.50;;;;;;;-5.91;87.60;94495.44;5031090;28;20068;-77
2022/03/14 05:54:57;;;;;;;40.33;25.08;;;;;;;-5.53;87.70;94528.59;5030791;28;20052;-77
2022/03/14 05:57:24;;;;;;;47.50;27.92;;;;;;;-5.28;85.65;94540.66;5031091;28;20072;-77
2022/03/14 05:59:51;;;;;;;49.40;28.98;;;;;;;-5.13;84.96;94539.03;5030924;28;20399;-78
2022/03/14 06:02:21;;;;;;;51.25;30.58;;;;;;;-5.18;83.27;94510.13;5030588;28;20050;-78
2022/03/14 06:04:49;;;;;;;66.10;36.47;;;;;;;-5.02;84.09;94495.88;5030685;28;20099;-78
2022/03/14 06:07:16;;;;;;;54.72;34.63;;;;;;;-4.55;83.43;94543.50;5030455;28;20052;-78
2022/03/14 06:09:43;;;;;;;52.00;31.40;;;;;;;-4.30;81.67;94534.63;5030520;28;20518;-78
2022/03/14 06:12:11;;;;;;;42.80;26.80;;;;;;;-4.04;81.94;94533.16;5030524;28;20053;-78
2022/03/14 06:14:37;;;;;;;50.22;29.88;;;;;;;-3.82;80.71;94538.63;5030289;28;20132;-79
2022/03/14 06:17:05;;;;;;;47.88;27.00;;;;;;;-3.60;79.54;94542.41;5030361;28;20502;-79
2022/03/14 06:19:32;;;;;;;58.05;33.45;;;;;;;-3.36;77.61;94540.16;5030416;28;20052;-78
2022/03/14 06:22:00;;;;;;;54.63;31.58;;;;;;;-3.15;76.43;94544.81;5029406;28;20058;-78
2022/03/14 06:24:27;;;;;;;56.53;34.10;;;;;;;-3.13;75.11;94517.88;5030425;28;20056;-79
2022/03/14 06:26:53;;;;;;;56.70;31.83;;;;;;;-2.78;72.99;94549.31;5030246;28;20049;-79
2022/03/14 06:29:21;;;;;;;59.30;33.85;;;;;;;-2.99;72.62;94500.25;5030039;28;20045;-79
2022/03/14 06:31:47;;;;;;;76.38;40.10;;;;;;;-2.92;71.81;94503.16;5030609;28;20495;-80
2022/03/14 06:34:15;;;;;;;70.40;35.85;;;;;;;-3.07;72.75;94452.13;5030864;28;20418;-80
2022/03/14 06:36:44;;;;;;;59.00;32.67;;;;;;;-2.35;72.46;94535.75;5029814;28;20080;-79
2022/03/14 06:39:12;;;;;;;51.85;30.13;;;;;;;-2.10;68.62;94541.72;5029961;28;20041;-80
2022/03/14 06:41:39;;;;;;;58.92;35.40;;;;;;;-2.46;68.44;94455.91;5029774;28;20434;-79
2022/03/14 06:44:06;;;;;;;53.60;30.52;;;;;;;-1.57;68.19;94554.22;5030138;28;20453;-79
2022/03/14 06:46:33;;;;;;;56.58;34.15;;;;;;;-1.31;67.21;94559.25;5029978;28;20049;-79
2022/03/14 06:49:00;;;;;;;48.22;28.88;;;;;;;-1.06;64.66;94572.72;5029762;28;20087;-79
2022/03/14 06:51:27;;;;;;;33.33;19.92;;;;;;;-0.91;58.88;94575.09;5029781;28;20580;-79
2022/03/14 06:53:54;;;;;;;41.55;23.08;;;;;;;-0.88;57.22;94578.22;5029586;28;20498;-79
2022/03/14 06:56:22;;;;;;;41.30;25.23;;;;;;;-0.92;58.18;94560.88;5029455;28;20045;-80
2022/03/14 06:58:49;;;;;;;52.45;26.77;;;;;;;-0.67;61.78;94567.56;5029986;28;20057;-79
2022/03/14 07:01:16;;;;;;;51.03;27.20;;;;;;;-1.16;59.52;94504.44;5029494;28;20045;-80
2022/03/14 07:03:43;;;;;;;71.93;33.70;;;;;;;-1.42;60.68;94521.34;5029538;28;20065;-80
2022/03/14 07:06:09;;;;;;;116.93;48.75;;;;;;;-1.21;62.61;94577.88;5029689;28;20049;-80
2022/03/14 07:08:36;;;;;;;51.38;24.98;;;;;;;-1.24;63.05;94552.09;5029582;28;20056;-80
2022/03/14 07:11:03;;;;;;;74.60;33.25;;;;;;;-1.31;62.00;94576.91;5029546;28;20419;-81
2022/03/14 07:13:31;;;;;;;71.32;30.05;;;;;;;-1.86;62.36;94488.94;5029130;28;20054;-81
2022/03/14 07:15:58;;;;;;;49.17;22.48;;;;;;;-1.78;61.98;94521.19;5029244;28;21030;-81
2022/03/14 07:18:25;;;;;;;69.30;31.00;;;;;;;-1.37;61.30;94582.34;5029091;28;20056;-81
2022/03/14 07:20:52;;;;;;;58.97;24.95;;;;;;;-1.07;64.01;94578.66;5029256;28;20049;-82
2022/03/14 07:23:19;;;;;;;66.43;28.85;;;;;;;-1.01;64.12;94550.53;5029187;28;20059;-82
2022/03/14 07:25:45;;;;;;;82.07;32.80;;;;;;;-0.81;58.48;94551.69;5029707;28;20103;-82
2022/03/14 07:28:12;;;;;;;53.17;22.90;;;;;;;-0.83;56.05;94571.13;5029876;28;20422;-82
2022/03/14 07:30:40;;;;;;;43.45;19.52;;;;;;;-0.54;55.53;94567.50;5029472;28;20056;-82
2022/03/14 07:33:07;;;;;;;35.72;17.55;;;;;;;-0.08;56.15;94586.19;5029680;28;20058;-82
2022/03/14 07:35:36;;;;;;;40.78;20.02;;;;;;;0.29;60.95;94585.25;5029610;28;20050;-83
2022/03/14 07:38:03;;;;;;;36.88;17.73;;;;;;;0.74;60.07;94581.94;5029465;28;20099;-82
2022/03/14 07:40:30;;;;;;;28.00;14.70;;;;;;;0.49;51.80;94532.38;5029887;28;20153;-82
2022/03/14 07:42:58;;;;;;;30.58;15.07;;;;;;;1.22;53.86;94585.13;5029557;28;20057;-82
2022/03/14 07:45:26;;;;;;;27.48;13.73;;;;;;;1.56;54.61;94581.69;5029440;28;20499;-81
2022/03/14 07:47:55;;;;;;;35.22;17.20;;;;;;;1.62;51.47;94577.91;5029206;28;20045;-81
2022/03/14 07:50:23;;;;;;;27.95;15.20;;;;;;;1.20;51.07;94529.56;5029358;28;20135;-81
2022/03/14 07:52:50;;;;;;;33.67;15.38;;;;;;;1.94;53.92;94582.94;5029601;28;20603;-80
2022/03/14 07:55:17;;;;;;;28.58;15.70;;;;;;;2.26;51.57;94586.34;5029728;28;20099;-81
2022/03/14 07:57:44;;;;;;;27.83;13.98;;;;;;;2.34;48.37;94568.81;5029265;28;20049;-80
2022/03/14 08:00:14;;;;;;;27.55;15.77;;;;;;;2.22;48.04;94552.84;5029562;28;20052;-80
2022/03/14 08:02:41;;;;;;;30.35;15.23;;;;;;;1.79;47.46;94558.81;5029299;28;20052;-80
2022/03/14 08:05:13;;;;;;;30.23;14.73;;;;;;;1.82;47.51;94577.13;5029582;28;20049;-79
2022/03/14 08:07:41;;;;;;;27.52;14.05;;;;;;;1.73;49.11;94547.47;5029094;28;20049;-79
2022/03/14 08:10:09;;;;;;;23.90;12.82;;;;;;;2.07;46.87;94582.78;5029500;28;20052;-79
2022/03/14 08:12:49;;;;;;;24.27;13.35;;;;;;;2.24;49.49;94581.44;5029185;28;20049;-80
2022/03/14 08:15:21;;;;;;;25.52;13.85;;;;;;;2.65;49.50;94576.41;5029345;28;20049;-80
2022/03/14 08:17:48;;;;;;;28.85;13.85;;;;;;;2.79;50.23;94542.28;5029254;28;20046;-80
2022/03/14 08:20:16;;;;;;;25.05;12.75;;;;;;;2.88;44.47;94548.31;5029121;28;20060;-80
2022/03/14 08:22:43;;;;;;;28.55;13.15;;;;;;;2.83;47.55;94547.13;5029349;28;20057;-81
2022/03/14 08:25:10;;;;;;;27.08;12.75;;;;;;;3.34;45.99;94579.19;5029328;28;20728;-80
2022/03/14 08:27:37;;;;;;;23.63;11.95;;;;;;;3.12;44.95;94577.66;5029042;28;20065;-80
2022/03/14 08:30:06;;;;;;;23.20;11.70;;;;;;;3.52;46.92;94558.22;5029382;28;20107;-79
2022/03/14 08:32:34;;;;;;;26.85;11.52;;;;;;;3.65;46.41;94547.00;5029353;28;20075;-79
2022/03/14 08:35:06;;;;;;;28.17;11.48;;;;;;;4.13;46.13;94558.09;5029113;28;20077;-79
2022/03/14 08:37:36;;;;;;;18.40;9.65;;;;;;;4.13;43.98;94560.63;5029370;28;20463;-79
2022/03/14 08:40:03;;;;;;;10.90;6.57;;;;;;;4.26;40.42;94567.97;5028837;28;20052;-79
2022/03/14 08:42:30;;;;;;;9.85;5.95;;;;;;;4.68;43.09;94564.25;5029224;28;20041;-79
2022/03/14 08:44:57;;;;;;;17.20;8.95;;;;;;;5.00;42.51;94560.47;5031048;28;20910;-80
2022/03/14 08:47:25;;;;;;;26.98;12.93;;;;;;;5.29;42.37;94551.09;5032596;28;20056;-80
2022/03/14 08:49:52;;;;;;;14.15;7.47;;;;;;;5.01;39.10;94558.75;5032877;28;20406;-79
2022/03/14 08:52:37;;;;;;;6.47;3.78;;;;;;;3.71;38.68;94564.25;5032814;28;20061;-79
2022/03/14 08:55:06;;;;;;;8.70;5.63;;;;;;;3.74;39.53;94572.41;5032798;28;20053;-79
2022/03/14 08:57:33;;;;;;;11.63;5.65;;;;;;;3.58;40.28;94562.78;5032521;28;20495;-78
2022/03/14 09:00:00;;;;;;;8.32;5.25;;;;;;;3.56;39.20;94554.47;5032509;28;20103;-78
2022/03/14 09:02:28;;;;;;;6.65;4.70;;;;;;;3.41;38.86;94551.53;5032778;28;20064;-78
2022/03/14 09:04:54;;;;;;;7.50;4.90;;;;;;;3.43;39.75;94569.19;5032160;28;20042;-78
2022/03/14 09:07:26;;;;;;;7.05;4.22;;;;;;;3.27;39.79;94567.94;5031827;28;20498;-77
2022/03/14 09:09:53;;;;;;;8.00;4.53;;;;;;;3.28;40.49;94563.69;5032033;28;20081;-78
2022/03/14 09:12:21;;;;;;;7.43;5.10;;;;;;;3.32;39.73;94575.97;5031825;28;20053;-78
2022/03/14 09:14:50;;;;;;;8.82;5.40;;;;;;;3.18;39.94;94583.94;5032246;28;20058;-78
2022/03/14 09:17:17;;;;;;;7.90;4.85;;;;;;;2.90;39.44;94541.41;5031340;28;20049;-78
2022/03/14 09:19:44;;;;;;;9.45;5.50;;;;;;;2.86;40.19;94534.97;5031683;28;20368;-78
2022/03/14 09:22:11;;;;;;;8.68;5.40;;;;;;;3.37;39.24;94569.72;5031765;28;20050;-79
2022/03/14 09:24:38;;;;;;;8.48;5.18;;;;;;;3.51;39.18;94554.06;5031641;28;20049;-78
2022/03/14 09:27:05;;;;;;;8.63;4.93;;;;;;;3.84;38.80;94569.88;5031456;28;20053;-78
2022/03/14 09:29:34;;;;;;;14.18;8.48;;;;;;;4.04;39.38;94566.50;5031326;28;20513;-78
2022/03/14 09:32:01;;;;;;;10.65;6.55;;;;;;;3.84;39.47;94566.53;5031281;28;20449;-78
2022/03/14 09:34:28;;;;;;;8.07;5.13;;;;;;;3.71;39.72;94570.13;5031079;28;20046;-78
2022/03/14 09:36:55;;;;;;;18.17;9.70;;;;;;;3.57;38.89;94558.63;5031346;28;20049;-78
2022/03/14 09:39:22;;;;;;;7.25;4.97;;;;;;;3.72;39.99;94560.78;5031097;28;20095;-78
2022/03/14 09:41:53;;;;;;;13.27;6.82;;;;;;;3.90;40.06;94557.56;5031536;28;20058;-78
2022/03/14 09:44:21;;;;;;;13.40;9.18;;;;;;;3.71;40.52;94570.13;5029822;28;20099;-78
2022/03/14 09:46:50;;;;;;;10.98;7.60;;;;;;;3.57;39.88;94565.44;5031336;28;20053;-78
2022/03/14 09:49:18;;;;;;;12.90;7.03;;;;;;;3.94;40.53;94566.53;5030924;28;20064;-78
2022/03/14 09:51:45;;;;;;;15.68;9.57;;;;;;;3.98;41.81;94563.56;5031126;28;20057;-78
2022/03/14 09:54:12;;;;;;;17.15;11.25;;;;;;;3.98;41.41;94561.03;5031189;28;20042;-78
2022/03/14 09:56:42;;;;;;;17.77;10.32;;;;;;;3.81;40.21;94544.72;5030582;28;20644;-78
2022/03/14 09:59:12;;;;;;;11.40;6.82;;;;;;;3.70;40.10;94539.78;5030841;28;20507;-78
2022/03/14 10:01:39;;;;;;;13.40;7.78;;;;;;;4.31;40.52;94568.38;5030638;28;20325;-78
2022/03/14 10:04:08;;;;;;;17.92;7.93;;;;;;;4.31;39.44;94554.84;5031061;28;20050;-78
2022/03/14 10:06:36;;;;;;;9.90;6.72;;;;;;;3.88;39.18;94532.25;5030626;28;20052;-78
2022/03/14 10:09:03;;;;;;;9.15;6.13;;;;;;;4.13;38.62;94576.66;5030713;28;20132;-78
2022/03/14 10:11:31;;;;;;;14.23;6.88;;;;;;;4.07;39.71;94564.50;5030301;28;20457;-78
2022/03/14 10:13:58;;;;;;;13.07;6.65;;;;;;;4.05;39.86;94568.13;5030787;28;20165;-79
2022/03/14 10:16:25;;;;;;;12.32;6.15;;;;;;;4.03;39.88;94555.53;5030550;28;20060;-79
2022/03/14 10:18:57;;;;;;;9.48;6.07;;;;;;;4.30;38.88;94568.50;5029862;28;20100;-79
2022/03/14 10:21:34;;;;;;;11.68;5.88;;;;;;;4.30;39.85;94563.41;5030468;28;20494;-79
2022/03/14 10:24:03;;;;;;;9.40;5.35;;;;;;;4.06;38.86;94562.91;5030257;28;20055;-79
2022/03/14 10:26:31;;;;;;;8.45;5.05;;;;;;;3.99;38.60;94485.56;5030320;28;20128;-79
2022/03/14 10:28:59;;;;;;;13.40;8.38;;;;;;;4.33;38.48;94558.03;5028559;28;20049;-79
2022/03/14 10:31:30;;;;;;;15.27;7.85;;;;;;;4.32;38.84;94557.25;5026599;28;20045;-79
2022/03/14 10:34:05;;;;;;;8.45;5.30;;;;;;;4.27;38.71;94561.94;5029234;28;20145;-79
2022/03/14 10:36:47;;;;;;;13.57;7.07;;;;;;;4.48;38.61;94553.31;5030373;28;20453;-79
2022/03/14 10:39:16;;;;;;;9.68;5.72;;;;;;;3.95;38.49;94540.16;5030209;28;20072;-79
2022/03/14 10:41:46;;;;;;;7.85;4.95;;;;;;;4.27;39.63;94547.47;5029908;28;20049;-79
2022/03/14 10:44:23;;;;;;;11.95;7.25;;;;;;;4.34;38.57;94549.47;5029932;28;20045;-79
2022/03/14 10:46:50;;;;;;;8.57;5.65;;;;;;;4.10;39.01;94495.59;5029792;28;20510;-79
2022/03/14 10:49:17;;;;;;;8.27;5.25;;;;;;;4.66;37.47;94553.38;5029913;28;20140;-78
2022/03/14 10:51:56;;;;;;;9.90;5.78;;;;;;;4.76;37.79;94555.88;5029984;28;20056;-78
2022/03/14 10:54:23;;;;;;;6.55;4.35;;;;;;;4.70;38.19;94496.19;5029559;28;20049;-79
2022/03/14 10:57:04;;;;;;;9.32;5.05;;;;;;;5.15;36.09;94537.09;5029927;28;20422;-80
2022/03/14 10:59:35;;;;;;;7.72;5.05;;;;;;;4.87;37.08;94537.09;5029901;28;20045;-79
2022/03/14 11:02:03;;;;;;;11.32;6.40;;;;;;;4.88;38.16;94556.53;5029820;28;20556;-79
2022/03/14 11:04:41;;;;;;;10.85;7.00;;;;;;;4.44;37.66;94552.00;5030377;28;20430;-79
2022/03/14 11:07:10;;;;;;;9.65;5.38;;;;;;;4.60;39.04;94548.84;5028936;28;20065;-78
2022/03/14 11:09:44;;;;;;;8.95;5.45;;;;;;;4.76;38.40;94513.44;5029385;28;20054;-78
2022/03/14 11:12:13;;;;;;;8.70;6.05;;;;;;;4.50;38.89;94506.41;5029326;28;20503;-78
2022/03/14 11:14:40;;;;;;;15.60;10.30;;;;;;;5.25;38.19;94548.03;5029133;28;20438;-79
2022/03/14 11:17:26;;;;;;;17.85;9.27;;;;;;;5.37;38.19;94535.88;5029820;28;20053;-79
2022/03/14 11:19:54;;;;;;;10.95;7.40;;;;;;;5.42;37.96;94520.16;5029828;28;20049;-79
2022/03/14 11:22:24;;;;;;;8.63;5.00;;;;;;;5.40;38.05;94544.97;5029246;28;20049;-79
2022/03/14 11:24:52;;;;;;;9.65;4.93;;;;;;;5.31;37.35;94516.06;5029343;28;20061;-79